CLMO2: North Canadian River

                                SHEF ID:       CLMO2     North Canadian River near Calume
STATION TYPE:
Regulating: Stage = 12.00, Flow = 1420

STAGE STAGE(2) RIV-FLOW WTR-TEMP DIS-OXY PH CONDUCT BAT-LOAD
ft ft cfs F mg/l su umho/cm volt
Ccp-Rev Ccp-Rev Ccp-Rev Ccp-Rev Ccp-Rev Ccp-Rev Ccp-Rev Ccp-Rev
(America/Chicago)
04/30 00:00 3.61 ---- 21 69.37 7.25 8.43 1430 12.64
04/30 01:00 3.62 ---- 22 68.43 7.26 8.41 1428 12.67
04/30 02:00 3.62 ---- 22 67.46 7.28 8.40 1426 12.59
04/30 03:00 3.62 ---- 22 66.56 7.34 8.39 1426 12.61
04/30 04:00 3.62 ---- 22 65.88 7.40 8.38 1425 12.52
04/30 05:00 3.62 ---- 22 65.28 7.45 8.37 1422 12.55
04/30 06:00 3.62 ---- 22 64.80 7.51 8.37 1423 12.47
04/30 07:00 3.62 ---- 22 64.44 7.57 8.36 1420 12.50
04/30 08:00 3.62 ---- 22 64.20 7.74 8.37 1420 12.44
04/30 09:00 3.63 ---- 22 64.60 8.24 8.39 1418 12.55
04/30 10:00 3.63 ---- 22 65.82 8.84 8.43 1414 12.72
04/30 11:00 3.63 ---- 22 67.59 9.28 8.46 1410 13.09
04/30 12:00 3.63 ---- 22 70.18 9.59 8.47 1405 12.92
04/30 13:00 3.63 ---- 22 73.96 9.71 8.47 1404 13.03
04/30 14:00 3.63 ---- 22 76.39 9.80 8.48 1400 13.07
04/30 15:00 3.62 ---- 22 79.16 9.84 8.49 1399 13.10
04/30 16:00 3.62 ---- 22 81.10 9.71 8.46 1403 13.11
04/30 17:00 3.61 ---- 21 81.55 9.54 8.48 1396 13.09
04/30 18:00 3.61 ---- 21 80.71 9.13 8.48 1388 12.96
04/30 19:00 3.60 ---- 21 79.48 8.64 8.49 1388 13.01
04/30 20:00 3.60 ---- 21 78.30 7.98 8.47 1383 12.90
04/30 21:00 3.59 ---- 20 77.02 7.34 8.44 1381 12.81
04/30 22:00 3.59 ---- 20 75.69 7.00 8.43 1378 12.69
04/30 23:00 3.59 ---- 20 74.62 6.82 8.42 1375 12.70
Data processed at Fri 01May2026 04:25 GMT

NOTICE: If you are parsing this page

Please convert to using our Data API. Starting early 2026 we will be migrating to: https://water.usace.army.mil with modern pages rendered in JavaScript. When this migration completes you will no longer be able to scrape this page! CWMSDataAPI (CDA)

Timeseries IDs (TSIDs)

TSIDs used from left to right in the data table
CALU.Stage.Inst.1Hour.0.Ccp-Rev
CALU.Stage-Alt.Inst.1Hour.0.Ccp-Rev
CALU.Flow.Inst.1Hour.0.Ccp-Rev
CALU.Temp-Water.Inst.1Hour.0.Ccp-Rev
CALU.Conc-DO.Inst.1Hour.0.Ccp-Rev
CALU.pH.Inst.1Hour.0.Ccp-Rev
CALU.Cond-Water.Inst.1Hour.0.Ccp-Rev
CALU.Volt-Battery Load.Inst.1Hour.0.Ccp-Rev

                            

All information presented herein is the property of the government of the United States of America and may be revised or deleted at any time without prior notice. Dissemination of this information without the expressed written consent of the Public Affairs Office, Tulsa District U.S. Army Corps of Engineers is strictly prohibited. These data are gathered electronically and, as presented, have NOT undergone any form of quality control. These data are NOT guaranteed to be valid or correct.